Time;durP1;ratioP1;P1;durP2;ratioP2;P2;SDS_P1;SDS_P2;PMS_P1;PMS_P2;Temp;Humidity;BMP_temperature;BMP_pressure;BME280_temperature;BME280_humidity;BME280_pressure;Samples;Min_cycle;Max_cycle;Signal;HPM_P1;HPM_P2
2021/01/29 03:47:35;;;;;;;2.78;2.67;;;6.90;99.90;;;;;;5085586;22;89088;-86
2021/01/29 03:50:53;;;;;;;2.30;2.20;;;6.70;99.90;;;;;;4939816;28;86899;-84
2021/01/29 03:53:54;;;;;;;1.58;1.35;;;6.70;99.90;;;;;;4924551;28;86301;-85
2021/01/29 03:56:31;;;;;;;3.07;2.87;;;6.40;99.90;;;;;;4899181;28;88126;-84
2021/01/29 03:59:04;;;;;;;2.25;1.08;;;6.50;99.90;;;;;;4937087;28;88023;-85
2021/01/29 04:02:10;;;;;;;2.30;2.20;;;6.60;99.90;;;;;;4929211;28;87451;-85
2021/01/29 04:05:08;;;;;;;2.85;2.65;;;6.60;99.90;;;;;;4919495;28;86102;-85
2021/01/29 04:07:59;;;;;;;2.40;2.30;;;6.60;99.90;;;;;;4919646;28;87605;-85
2021/01/29 04:10:28;;;;;;;2.88;2.70;;;6.70;99.90;;;;;;4944144;28;88755;-84
2021/01/29 04:13:03;;;;;;;2.50;2.40;;;6.60;99.90;;;;;;4949967;28;87113;-85
2021/01/29 04:15:29;;;;;;;2.33;2.22;;;;;;;;;;4954573;28;87068;-85
2021/01/29 04:18:09;;;;;;;1.30;1.20;;;6.70;99.90;;;;;;4937417;28;87050;-83
2021/01/29 04:20:54;;;;;;;2.45;2.35;;;6.70;99.90;;;;;;4932798;28;89882;-85
2021/01/29 04:23:28;;;;;;;2.47;2.35;;;6.70;99.90;;;;;;4938739;28;87282;-84
2021/01/29 04:26:03;;;;;;;2.92;2.72;;;6.80;99.90;;;;;;4928460;28;86561;-85
2021/01/29 04:28:33;;;;;;;1.60;1.50;;;6.80;99.90;;;;;;4940528;28;85626;-85
2021/01/29 04:31:02;;;;;;;2.70;2.47;;;6.70;99.90;;;;;;4924304;28;88207;-84
2021/01/29 04:33:38;;;;;;;2.05;1.23;;;6.80;99.90;;;;;;4953302;28;88364;-83
2021/01/29 04:36:07;;;;;;;2.70;2.60;;;6.90;99.90;;;;;;4944791;28;87886;-83
2021/01/29 04:38:35;;;;;;;2.35;2.25;;;6.90;99.90;;;;;;4917021;28;87596;-83
2021/01/29 04:41:21;;;;;;;2.80;2.60;;;6.90;99.90;;;;;;4932976;28;87053;-83
2021/01/29 04:43:52;;;;;;;2.60;2.50;;;7.10;99.90;;;;;;4933754;28;87001;-83
2021/01/29 04:46:26;;;;;;;2.25;2.15;;;7.00;99.90;;;;;;4941020;28;86884;-83
2021/01/29 04:49:17;;;;;;;2.78;2.53;;;7.00;99.90;;;;;;4952943;28;86739;-83
2021/01/29 04:51:46;;;;;;;2.20;2.10;;;7.10;99.90;;;;;;4939814;28;86943;-83
2021/01/29 04:54:27;;;;;;;0.95;0.93;;;7.10;99.90;;;;;;4931281;28;87505;-82
2021/01/29 04:57:22;;;;;;;2.35;2.25;;;7.20;99.90;;;;;;4934545;28;86966;-82
2021/01/29 04:59:47;;;;;;;2.30;2.20;;;7.10;99.90;;;;;;4932582;28;87019;-83
2021/01/29 05:02:49;;;;;;;2.92;2.55;;;7.00;99.90;;;;;;4923563;28;89556;-82
2021/01/29 05:05:40;;;;;;;2.40;2.30;;;7.20;99.90;;;;;;4932708;28;87923;-83
2021/01/29 05:08:32;;;;;;;2.13;2.03;;;7.10;99.90;;;;;;4926542;28;86909;-83
2021/01/29 05:11:32;;;;;;;2.88;2.67;;;7.00;99.90;;;;;;4918420;28;87028;-83
2021/01/29 05:14:40;;;;;;;2.70;2.60;;;6.90;99.90;;;;;;4923460;28;87260;-83
2021/01/29 05:17:27;;;;;;;1.42;1.13;;;6.90;99.90;;;;;;4938652;28;86876;-84
2021/01/29 05:20:14;;;;;;;2.53;2.42;;;6.70;99.90;;;;;;4948416;28;86377;-83
2021/01/29 05:22:52;;;;;;;2.80;2.70;;;6.70;99.90;;;;;;4923642;28;86046;-81
2021/01/29 05:25:39;;;;;;;2.25;2.15;;;6.80;99.90;;;;;;4931502;28;87064;-83
2021/01/29 05:28:22;;;;;;;2.83;2.63;;;6.70;99.90;;;;;;4925177;28;88090;-82
2021/01/29 05:31:22;;;;;;;2.35;2.25;;;6.60;99.90;;;;;;4917588;28;87836;-81
2021/01/29 05:34:15;;;;;;;3.90;3.60;;;6.60;99.90;;;;;;4924605;28;86927;-82
2021/01/29 05:37:22;;;;;;;2.42;2.25;;;6.70;99.90;;;;;;4920874;28;86787;-84
2021/01/29 05:39:55;;;;;;;2.70;2.50;;;6.70;99.90;;;;;;4871177;28;87154;-83
2021/01/29 05:42:48;;;;;;;2.22;2.13;;;6.80;99.90;;;;;;4931640;28;86785;-83
2021/01/29 05:45:25;;;;;;;2.72;2.53;;;6.90;99.90;;;;;;4941429;28;86959;-83
2021/01/29 05:48:23;;;;;;;3.53;2.33;;;6.80;99.90;;;;;;4914830;28;91074;-85
2021/01/29 05:51:10;;;;;;;2.33;2.22;;;6.80;99.90;;;;;;4931006;28;87596;-85
2021/01/29 05:53:41;;;;;;;2.63;2.53;;;6.60;99.90;;;;;;4921663;28;87342;-84
2021/01/29 05:56:07;;;;;;;3.63;2.05;;;;;;;;;;4937459;28;86303;-83
2021/01/29 05:59:01;;;;;;;2.72;2.53;;;6.60;99.90;;;;;;4925807;28;88019;-83
2021/01/29 06:01:51;;;;;;;1.25;1.15;;;6.70;99.90;;;;;;4929754;28;87180;-83
2021/01/29 06:04:54;;;;;;;2.13;2.03;;;6.90;99.90;;;;;;4930591;28;87040;-82
2021/01/29 06:07:33;;;;;;;2.75;2.55;;;7.10;99.90;;;;;;4927701;28;87342;-84
2021/01/29 06:10:36;;;;;;;2.33;2.22;;;7.20;99.90;;;;;;4932319;28;87690;-84
2021/01/29 06:13:26;;;;;;;2.78;2.58;;;7.20;99.90;;;;;;4927057;28;86940;-84
2021/01/29 06:16:36;;;;;;;1.27;1.17;;;7.20;99.90;;;;;;4927982;28;86534;-82
2021/01/29 06:19:31;;;;;;;3.22;3.03;;;7.20;99.90;;;;;;4930949;28;86058;-82
2021/01/29 06:22:26;;;;;;;1.38;1.00;;;7.20;99.90;;;;;;4926972;28;87762;-84
2021/01/29 06:25:25;;;;;;;0.90;0.90;;;7.40;99.90;;;;;;4935673;28;86690;-85
2021/01/29 06:28:38;;;;;;;1.05;0.93;;;7.40;99.90;;;;;;4934934;28;87935;-85
2021/01/29 06:31:09;;;;;;;0.82;0.82;;;7.30;99.90;;;;;;4837417;29;86752;-84
2021/01/29 06:33:53;;;;;;;;;;;7.00;99.90;;;;;;4835092;29;88400;-86
2021/01/29 06:36:46;;;;;;;2.60;2.50;;;7.30;99.90;;;;;;4888540;28;87211;-85
2021/01/29 06:39:24;;;;;;;1.38;1.17;;;6.90;99.90;;;;;;4909376;28;87134;-86
2021/01/29 06:41:56;;;;;;;1.27;1.17;;;6.90;99.90;;;;;;4931765;28;86546;-88
2021/01/29 06:44:38;;;;;;;1.02;1.00;;;7.00;99.90;;;;;;4915945;28;91162;-86
2021/01/29 06:47:19;;;;;;;3.08;2.97;;;7.20;99.90;;;;;;4932773;28;87355;-86
2021/01/29 06:50:18;;;;;;;0.80;0.80;;;7.60;99.90;;;;;;4933716;28;86996;-85
2021/01/29 06:53:04;;;;;;;0.90;0.90;;;7.30;99.90;;;;;;4928665;28;86946;-84
2021/01/29 06:55:52;;;;;;;2.83;2.63;;;7.40;99.90;;;;;;4918132;28;87638;-86
2021/01/29 06:58:55;;;;;;;2.38;2.28;;;7.50;99.90;;;;;;4929742;28;89468;-84
2021/01/29 07:01:39;;;;;;;2.15;2.08;;;7.30;99.90;;;;;;4938060;28;86909;-84
2021/01/29 07:04:24;;;;;;;2.10;1.95;;;7.40;99.90;;;;;;4933628;28;87116;-84
2021/01/29 07:07:21;;;;;;;2.30;2.20;;;7.40;99.90;;;;;;4922227;28;87945;-85
2021/01/29 07:10:05;;;;;;;1.33;0.98;;;7.50;99.90;;;;;;4925834;28;86485;-85
2021/01/29 07:13:05;;;;;;;1.08;1.08;;;7.50;99.90;;;;;;4907159;28;86700;-87
2021/01/29 07:15:56;;;;;;;1.20;0.90;;;7.60;99.90;;;;;;4930087;28;86338;-86
2021/01/29 07:18:50;;;;;;;;;;;7.80;99.90;;;;;;4935505;28;88472;-83
2021/01/29 07:21:36;;;;;;;1.25;1.13;;;7.60;99.90;;;;;;4942755;28;87129;-83
2021/01/29 07:24:13;;;;;;;4.13;1.58;;;7.20;99.90;;;;;;4918224;28;88078;-84
2021/01/29 07:27:24;;;;;;;3.10;2.95;;;7.20;99.90;;;;;;4933027;28;86814;-85
2021/01/29 07:30:09;;;;;;;2.70;2.50;;;6.70;99.90;;;;;;4903050;28;87414;-83
2021/01/29 07:32:46;;;;;;;1.80;1.70;;;6.90;99.90;;;;;;4938999;28;86783;-84
2021/01/29 07:35:21;;;;;;;1.75;1.33;;;6.80;99.90;;;;;;4932660;28;86628;-83
2021/01/29 07:37:57;;;;;;;3.40;3.22;;;6.60;99.90;;;;;;4935837;28;86289;-83
2021/01/29 07:40:49;;;;;;;4.70;2.85;;;6.80;99.90;;;;;;4925702;28;87670;-83
2021/01/29 07:43:24;;;;;;;0.95;0.95;;;6.70;99.90;;;;;;4916933;28;90048;-84
2021/01/29 07:46:18;;;;;;;1.40;1.30;;;6.80;99.90;;;;;;4916305;28;87105;-83
2021/01/29 07:49:25;;;;;;;1.30;1.20;;;6.90;99.90;;;;;;4915530;28;86664;-84
2021/01/29 07:52:23;;;;;;;1.27;1.17;;;6.90;99.90;;;;;;4913525;28;88841;-86
2021/01/29 07:54:56;;;;;;;1.00;1.00;;;6.90;99.90;;;;;;4880607;28;88887;-84
2021/01/29 07:57:22;;;;;;;2.78;2.67;;;;;;;;;;4915699;28;86905;-84
2021/01/29 08:00:04;;;;;;;1.25;1.15;;;6.80;99.90;;;;;;4916596;28;87110;-85
2021/01/29 08:02:38;;;;;;;2.38;2.28;;;6.80;99.90;;;;;;4916294;28;87738;-85
2021/01/29 08:05:19;;;;;;;0.80;0.80;;;6.70;99.90;;;;;;4910329;28;87474;-85
2021/01/29 08:07:53;;;;;;;2.33;2.22;;;6.70;99.90;;;;;;4917001;28;86739;-84
2021/01/29 08:10:37;;;;;;;0.80;0.80;;;6.80;99.90;;;;;;4917037;28;86284;-85
2021/01/29 08:13:21;;;;;;;3.03;1.48;;;6.70;99.90;;;;;;4908709;28;88066;-86
2021/01/29 08:15:56;;;;;;;1.80;1.20;;;6.70;99.90;;;;;;4916361;28;87465;-85
2021/01/29 08:18:43;;;;;;;3.40;2.42;;;6.50;99.90;;;;;;4898565;28;87873;-85
2021/01/29 08:21:52;;;;;;;2.60;2.40;;;6.80;99.90;;;;;;4917435;28;86650;-84
2021/01/29 08:24:26;;;;;;;4.32;2.85;;;7.10;99.90;;;;;;4914901;28;87238;-85
2021/01/29 08:27:20;;;;;;;2.40;2.20;;;7.20;99.90;;;;;;4898393;28;89461;-85
2021/01/29 08:29:45;;;;;;;2.05;0.88;;;7.30;99.90;;;;;;4914279;28;86509;-86
2021/01/29 08:32:35;;;;;;;2.25;2.17;;;7.50;99.90;;;;;;4916120;28;86903;-86
2021/01/29 08:35:03;;;;;;;0.65;0.65;;;7.50;99.90;;;;;;4899467;28;90668;-85
2021/01/29 08:37:44;;;;;;;3.70;3.05;;;7.60;99.90;;;;;;4917436;28;87439;-86
2021/01/29 08:40:29;;;;;;;3.53;1.23;;;7.60;99.90;;;;;;4912080;28;86247;-86
2021/01/29 08:43:32;;;;;;;1.20;0.50;;;7.60;99.90;;;;;;4915284;28;87001;-87
2021/01/29 08:46:07;;;;;;;0.73;0.73;;;7.80;99.90;;;;;;4898743;28;88861;-86
2021/01/29 08:48:52;;;;;;;0.93;0.93;;;8.10;99.90;;;;;;4913410;28;88571;-85
2021/01/29 08:51:23;;;;;;;2.83;2.70;;;8.10;99.90;;;;;;4911814;28;86816;-84
2021/01/29 08:54:13;;;;;;;1.20;1.10;;;8.10;99.90;;;;;;4906984;28;87128;-85
2021/01/29 08:57:00;;;;;;;3.22;2.90;;;8.30;99.90;;;;;;4894104;28;89825;-86
2021/01/29 08:59:33;;;;;;;0.88;0.88;;;8.10;99.90;;;;;;4902616;28;89490;-85
2021/01/29 09:02:17;;;;;;;3.90;3.45;;;8.50;99.90;;;;;;4911445;28;87306;-85
2021/01/29 09:04:50;;;;;;;2.58;2.47;;;8.30;99.90;;;;;;4918735;28;86173;-84
2021/01/29 09:07:18;;;;;;;2.15;1.95;;;8.30;99.90;;;;;;4909653;28;87404;-86
2021/01/29 09:09:45;;;;;;;1.50;1.00;;;8.20;99.90;;;;;;4911105;28;86961;-85
2021/01/29 09:12:32;;;;;;;1.40;1.25;;;8.10;99.90;;;;;;4914947;28;88078;-85
2021/01/29 09:15:24;;;;;;;1.10;1.10;;;8.10;99.90;;;;;;4903444;28;86569;-85
2021/01/29 09:18:05;;;;;;;2.50;2.40;;;8.10;99.90;;;;;;4913281;28;87709;-86
2021/01/29 09:20:45;;;;;;;1.50;0.90;;;8.10;99.90;;;;;;4917090;28;86857;-86
2021/01/29 09:23:27;;;;;;;2.13;2.08;;;8.30;99.90;;;;;;4913629;28;87074;-86
2021/01/29 09:25:59;;;;;;;2.38;2.13;;;8.10;99.90;;;;;;4913824;28;86957;-86
2021/01/29 09:28:39;;;;;;;2.85;2.65;;;8.20;99.90;;;;;;4912670;28;87286;-88
2021/01/29 09:31:12;;;;;;;1.35;1.25;;;8.10;99.90;;;;;;4890649;28;89785;-86
2021/01/29 09:33:44;;;;;;;2.70;2.60;;;8.30;99.90;;;;;;4912360;28;86916;-88
2021/01/29 09:36:26;;;;;;;0.80;0.80;;;8.20;99.90;;;;;;4895237;28;88029;-88
2021/01/29 09:38:55;;;;;;;2.10;2.00;;;8.40;99.90;;;;;;4917260;28;88703;-85
2021/01/29 09:41:33;;;;;;;0.70;0.70;;;8.40;99.90;;;;;;4912491;28;88140;-87
2021/01/29 09:44:06;;;;;;;0.80;0.80;;;8.40;99.90;;;;;;4912221;28;86774;-87
2021/01/29 09:46:38;;;;;;;0.70;0.70;;;8.50;99.90;;;;;;4913421;28;86865;-87
2021/01/29 09:49:11;;;;;;;2.42;2.22;;;8.50;99.90;;;;;;4900163;28;90358;-87
2021/01/29 09:51:43;;;;;;;3.40;3.20;;;8.70;99.90;;;;;;4918388;28;87430;-85
2021/01/29 09:54:18;;;;;;;2.33;2.17;;;8.90;99.90;;;;;;4909472;28;86159;-85
2021/01/29 09:56:52;;;;;;;3.08;2.72;;;8.90;99.90;;;;;;4917549;28;86196;-85
2021/01/29 09:59:48;;;;;;;2.85;2.22;;;8.90;99.90;;;;;;4913894;28;86682;-84
2021/01/29 10:02:49;;;;;;;2.33;2.22;;;9.00;99.90;;;;;;4909422;28;86603;-85
2021/01/29 10:05:29;;;;;;;2.53;2.33;;;9.00;99.90;;;;;;4895241;28;87655;-86
2021/01/29 10:08:03;;;;;;;2.42;2.22;;;8.90;99.90;;;;;;4912324;28;86861;-87
2021/01/29 10:11:01;;;;;;;2.65;2.47;;;8.90;99.90;;;;;;4911412;28;86977;-85
2021/01/29 10:14:04;;;;;;;1.00;0.90;;;9.00;99.90;;;;;;4904437;28;86884;-86
2021/01/29 10:16:29;;;;;;;2.60;2.42;;;8.80;99.90;;;;;;4911715;28;86934;-85
2021/01/29 10:19:15;;;;;;;2.55;2.45;;;9.00;99.90;;;;;;4911395;28;87072;-86
2021/01/29 10:21:41;;;;;;;2.30;2.20;;;8.90;99.90;;;;;;4897875;28;86853;-85
2021/01/29 10:24:16;;;;;;;2.60;2.50;;;9.00;99.90;;;;;;4917753;28;87051;-85
2021/01/29 10:26:54;;;;;;;2.38;2.28;;;9.20;99.90;;;;;;4911665;28;86488;-86
2021/01/29 10:29:22;;;;;;;2.15;2.05;;;9.50;99.90;;;;;;4916028;28;87205;-85
2021/01/29 10:32:22;;;;;;;2.30;2.20;;;9.50;99.90;;;;;;4911796;28;87707;-86
2021/01/29 10:35:23;;;;;;;2.22;2.13;;;9.80;99.90;;;;;;4913975;28;87952;-86
2021/01/29 10:38:07;;;;;;;2.75;2.55;;;9.80;99.90;;;;;;4912288;28;86983;-85
2021/01/29 10:41:01;;;;;;;3.08;2.78;;;9.70;99.90;;;;;;4911071;28;86984;-85
2021/01/29 10:44:03;;;;;;;3.15;2.70;;;9.50;99.90;;;;;;4890920;28;86941;-85
2021/01/29 10:46:53;;;;;;;2.65;2.55;;;9.80;99.90;;;;;;4907761;28;86957;-85
2021/01/29 10:49:43;;;;;;;6.90;4.97;;;9.40;99.90;;;;;;4913114;28;86935;-85
2021/01/29 10:52:44;;;;;;;2.97;2.42;;;9.30;99.90;;;;;;4913384;28;86163;-85
2021/01/29 10:55:22;;;;;;;3.83;3.00;;;9.30;99.90;;;;;;4918651;28;87031;-85
2021/01/29 10:57:59;;;;;;;1.10;1.00;;;9.40;99.90;;;;;;4916740;28;86988;-84
2021/01/29 11:00:29;;;;;;;2.78;1.83;;;9.60;99.90;;;;;;4915343;28;87759;-84
2021/01/29 11:03:09;;;;;;;5.00;4.60;;;10.00;99.90;;;;;;4916530;28;86895;-84
2021/01/29 11:05:39;;;;;;;3.03;2.05;;;9.80;99.90;;;;;;4908960;28;89396;-84
2021/01/29 11:08:20;;;;;;;2.72;2.63;;;10.00;99.90;;;;;;4913681;28;88301;-85
2021/01/29 11:10:51;;;;;;;2.72;2.63;;;9.80;99.90;;;;;;4903265;28;87864;-83
2021/01/29 11:13:58;;;;;;;4.47;2.08;;;10.00;99.90;;;;;;4911015;28;86696;-84
2021/01/29 11:16:38;;;;;;;3.10;2.85;;;10.70;99.90;;;;;;4908332;28;87489;-84
2021/01/29 11:19:15;;;;;;;3.97;3.57;;;11.20;99.10;;;;;;4913326;28;87515;-85
2021/01/29 11:22:09;;;;;;;3.38;1.98;;;11.30;99.70;;;;;;4912545;28;86932;-84
2021/01/29 11:25:02;;;;;;;2.75;1.77;;;11.30;94.70;;;;;;4906993;28;86721;-83
2021/01/29 11:27:28;;;;;;;2.13;2.03;;;11.60;92.60;;;;;;4916035;28;87769;-84
2021/01/29 11:30:15;;;;;;;2.67;2.47;;;11.80;92.50;;;;;;4920700;28;87961;-82
2021/01/29 11:32:44;;;;;;;2.40;2.30;;;11.90;86.70;;;;;;4921512;28;86923;-83
2021/01/29 11:35:23;;;;;;;2.13;1.90;;;12.20;87.50;;;;;;4915543;28;87211;-83
2021/01/29 11:37:58;;;;;;;2.42;2.20;;;12.70;90.50;;;;;;4917653;28;87482;-84
2021/01/29 11:41:02;;;;;;;2.65;2.45;;;13.30;85.70;;;;;;4912527;28;86811;-83
2021/01/29 11:43:56;;;;;;;1.05;1.02;;;13.40;85.40;;;;;;4886453;28;86640;-81
2021/01/29 11:47:17;;;;;;;2.80;2.60;;;14.30;78.70;;;;;;4923746;28;86308;-83
2021/01/29 11:49:58;;;;;;;1.83;1.73;;;13.80;76.20;;;;;;4888513;28;88408;-82
2021/01/29 11:52:37;;;;;;;1.10;1.00;;;13.50;77.30;;;;;;4938967;28;88228;-83
2021/01/29 11:55:16;;;;;;;2.50;2.35;;;13.30;79.40;;;;;;4925230;28;88204;-81
2021/01/29 11:57:52;;;;;;;2.75;2.22;;;13.50;78.70;;;;;;4918100;28;86590;-81
2021/01/29 12:00:25;;;;;;;2.33;2.20;;;14.20;77.40;;;;;;4936041;28;88148;-82
2021/01/29 12:03:08;;;;;;;2.42;2.33;;;15.40;71.90;;;;;;4931963;28;86681;-81
2021/01/29 12:05:45;;;;;;;1.65;1.65;;;16.00;71.10;;;;;;4932361;28;86696;-81
2021/01/29 12:08:39;;;;;;;2.47;2.00;;;15.50;67.70;;;;;;4932003;28;86604;-80
2021/01/29 12:11:12;;;;;;;1.85;1.75;;;14.60;77.20;;;;;;4931651;28;86612;-83
2021/01/29 12:14:24;;;;;;;2.13;1.92;;;13.50;90.80;;;;;;4927592;28;86252;-83
2021/01/29 12:16:57;;;;;;;2.35;2.00;;;12.50;89.40;;;;;;4869185;28;87801;-81
2021/01/29 12:19:35;;;;;;;1.90;1.90;;;11.00;93.60;;;;;;4897573;28;86687;-84
2021/01/29 12:22:12;;;;;;;2.22;2.13;;;9.90;95.60;;;;;;4926351;28;88798;-86
2021/01/29 12:25:09;;;;;;;1.85;1.75;;;9.20;97.70;;;;;;4943924;28;87874;-83
2021/01/29 12:28:20;;;;;;;1.88;1.88;;;8.90;98.10;;;;;;4935989;28;86779;-82
2021/01/29 12:31:04;;;;;;;1.50;1.50;;;8.70;95.50;;;;;;4874899;28;86980;-83
2021/01/29 12:33:41;;;;;;;1.80;1.80;;;8.50;99.90;;;;;;4879890;28;87758;-82
2021/01/29 12:36:11;;;;;;;1.80;1.75;;;8.20;99.90;;;;;;4875294;28;87110;-83
2021/01/29 12:38:43;;;;;;;2.47;2.38;;;8.10;99.90;;;;;;4874591;28;86535;-83
2021/01/29 12:41:23;;;;;;;1.77;1.70;;;8.00;99.90;;;;;;4872127;28;86327;-83
2021/01/29 12:44:07;;;;;;;1.88;1.80;;;8.10;99.90;;;;;;4872296;28;87767;-83
2021/01/29 12:47:03;;;;;;;2.15;1.80;;;8.00;99.90;;;;;;4866407;28;86912;-82
2021/01/29 12:49:39;;;;;;;2.10;2.00;;;7.80;99.90;;;;;;4853741;29;87314;-83
2021/01/29 12:52:44;;;;;;;2.05;1.95;;;7.50;99.90;;;;;;4855689;29;87201;-84
2021/01/29 12:55:19;;;;;;;1.90;1.80;;;7.40;99.90;;;;;;4839464;29;86609;-83
2021/01/29 12:58:01;;;;;;;1.80;1.70;;;7.40;99.90;;;;;;4857473;29;87100;-83
2021/01/29 13:00:32;;;;;;;1.60;1.60;;;7.40;99.90;;;;;;4856789;29;87085;-83
2021/01/29 13:03:04;;;;;;;2.35;2.25;;;7.40;99.90;;;;;;4915115;28;87106;-83
2021/01/29 13:05:48;;;;;;;2.05;1.92;;;7.40;99.90;;;;;;4901116;28;87951;-83
2021/01/29 13:08:38;;;;;;;2.70;2.50;;;7.70;99.90;;;;;;4910483;28;86916;-83
2021/01/29 13:11:30;;;;;;;1.80;1.80;;;8.40;99.90;;;;;;4919446;28;86797;-83
2021/01/29 13:14:40;;;;;;;2.20;2.10;;;8.90;99.90;;;;;;4910141;28;86997;-82
2021/01/29 13:17:30;;;;;;;2.67;2.47;;;8.70;99.20;;;;;;4895689;28;88762;-83
2021/01/29 13:20:12;;;;;;;1.65;1.63;;;8.70;99.90;;;;;;4917766;28;88295;-82
2021/01/29 13:22:52;;;;;;;1.58;1.58;;;9.00;98.40;;;;;;4897714;28;87026;-83
2021/01/29 13:25:27;;;;;;;1.55;1.55;;;8.90;97.10;;;;;;4910571;28;86938;-83
2021/01/29 13:28:15;;;;;;;1.92;1.83;;;8.90;97.20;;;;;;4910055;28;87704;-82
2021/01/29 13:30:42;;;;;;;2.22;2.13;;;9.40;96.30;;;;;;4915699;28;87074;-83
2021/01/29 13:33:29;;;;;;;1.92;1.90;;;9.30;96.00;;;;;;4914517;28;86849;-82
2021/01/29 13:36:21;;;;;;;1.65;1.65;;;8.90;95.30;;;;;;4935825;28;86762;-81
2021/01/29 13:38:48;;;;;;;1.75;1.65;;;8.50;95.50;;;;;;4907786;28;88179;-82
2021/01/29 13:41:15;;;;;;;2.67;2.55;;;8.40;98.00;;;;;;4896225;28;87228;-82
2021/01/29 13:43:43;;;;;;;2.20;2.10;;;8.40;98.00;;;;;;4910456;28;88044;-82
2021/01/29 13:46:23;;;;;;;2.10;2.00;;;8.30;98.20;;;;;;4916276;28;87079;-83
2021/01/29 13:48:48;;;;;;;2.17;2.08;;;8.30;98.80;;;;;;4924973;28;87801;-83
2021/01/29 13:51:33;;;;;;;2.45;2.35;;;8.30;98.90;;;;;;4928184;28;87223;-83
2021/01/29 13:54:00;;;;;;;2.33;2.17;;;8.40;98.60;;;;;;4920440;28;87172;-82
2021/01/29 13:56:48;;;;;;;2.50;2.35;;;8.40;98.50;;;;;;4927104;28;86963;-82
2021/01/29 13:59:42;;;;;;;1.45;1.45;;;8.30;99.30;;;;;;4921075;28;88082;-82
2021/01/29 14:02:20;;;;;;;1.98;1.90;;;8.40;98.40;;;;;;4918357;28;87123;-82
2021/01/29 14:04:54;;;;;;;2.25;2.15;;;8.40;99.40;;;;;;4923274;28;86977;-83
2021/01/29 14:07:20;;;;;;;1.73;1.70;;;8.40;99.20;;;;;;4947511;28;86888;-81
2021/01/29 14:09:46;;;;;;;2.35;1.88;;;8.80;98.90;;;;;;4927415;28;88739;-81
2021/01/29 14:12:41;;;;;;;1.00;0.80;;;9.00;97.90;;;;;;4927903;28;87962;-82
2021/01/29 14:15:27;;;;;;;1.95;1.85;;;9.40;95.90;;;;;;4927828;28;86963;-81
2021/01/29 14:18:43;;;;;;;2.00;1.90;;;9.60;95.90;;;;;;4929507;28;87438;-82
2021/01/29 14:21:25;;;;;;;2.05;1.95;;;10.20;92.80;;;;;;4896677;28;87025;-81
2021/01/29 14:24:30;;;;;;;2.17;2.05;;;10.70;91.50;;;;;;4931554;28;88465;-82
2021/01/29 14:27:04;;;;;;;2.30;2.20;;;11.20;91.30;;;;;;4930361;28;87099;-82
2021/01/29 14:30:01;;;;;;;2.08;1.92;;;11.00;87.60;;;;;;4930384;28;86031;-80
2021/01/29 14:32:47;;;;;;;2.38;2.28;;;10.80;90.00;;;;;;4911072;28;89347;-80
2021/01/29 14:35:19;;;;;;;2.58;2.42;;;10.50;87.50;;;;;;4927776;28;86635;-81
2021/01/29 14:38:03;;;;;;;4.20;1.63;;;10.20;88.10;;;;;;4918037;28;87927;-80
2021/01/29 14:40:44;;;;;;;2.28;2.08;;;10.20;87.60;;;;;;4930057;28;87344;-81
2021/01/29 14:43:12;;;;;;;2.43;2.30;;;10.10;90.50;;;;;;4921715;28;87587;-80
2021/01/29 14:45:41;;;;;;;2.42;2.20;;;10.10;90.70;;;;;;4928652;28;87504;-81
2021/01/29 14:48:52;;;;;;;2.40;2.30;;;10.00;91.30;;;;;;4915850;28;87472;-81
2021/01/29 14:51:54;;;;;;;2.10;2.00;;;10.00;91.30;;;;;;4909763;28;87226;-81
2021/01/29 14:54:24;;;;;;;3.33;2.83;;;9.90;90.10;;;;;;4890819;28;86552;-81
2021/01/29 14:57:00;;;;;;;1.92;1.90;;;9.90;90.70;;;;;;4909576;28;87350;-80
2021/01/29 14:59:42;;;;;;;2.55;2.30;;;9.80;88.70;;;;;;4901616;28;87307;-80
2021/01/29 15:02:30;;;;;;;5.10;2.90;;;9.70;90.50;;;;;;4912188;28;86965;-80
2021/01/29 15:05:00;;;;;;;2.92;2.72;;;9.70;91.30;;;;;;4911619;28;88591;-79
2021/01/29 15:07:34;;;;;;;2.75;2.65;;;9.60;90.70;;;;;;4907659;28;87762;-80
2021/01/29 15:10:08;;;;;;;4.13;2.88;;;9.50;91.80;;;;;;4916667;28;86948;-81
2021/01/29 15:12:41;;;;;;;2.58;2.30;;;9.30;94.90;;;;;;4913245;28;87008;-80
2021/01/29 15:15:19;;;;;;;2.83;2.63;;;9.10;93.70;;;;;;4908468;28;86382;-82
2021/01/29 15:18:07;;;;;;;2.30;2.20;;;9.00;94.50;;;;;;4909812;28;87082;-82
2021/01/29 15:20:49;;;;;;;2.47;2.30;;;8.80;95.00;;;;;;4887376;28;87044;-81
2021/01/29 15:23:22;;;;;;;2.05;1.95;;;8.70;94.80;;;;;;4909992;28;86242;-79
2021/01/29 15:25:50;;;;;;;3.22;1.73;;;8.70;94.90;;;;;;4910712;28;87516;-81
2021/01/29 15:28:23;;;;;;;2.55;1.98;;;8.70;94.70;;;;;;4906309;28;87943;-80
2021/01/29 15:30:52;;;;;;;2.75;2.55;;;8.60;96.90;;;;;;4901388;28;88118;-80
2021/01/29 15:33:30;;;;;;;4.43;2.50;;;8.60;95.80;;;;;;4909031;28;86707;-79
2021/01/29 15:36:14;;;;;;;2.05;1.90;;;8.60;95.00;;;;;;4904094;28;88814;-79
2021/01/29 15:39:03;;;;;;;2.00;1.90;;;8.70;94.40;;;;;;4912011;28;87106;-81
2021/01/29 15:41:51;;;;;;;2.75;2.00;;;8.70;95.00;;;;;;4891765;28;87478;-82
2021/01/29 15:44:23;;;;;;;2.03;1.92;;;8.50;95.30;;;;;;4908284;28;86989;-81
2021/01/29 15:46:53;;;;;;;1.88;1.08;;;8.50;95.00;;;;;;4920039;28;87682;-80
2021/01/29 15:49:19;;;;;;;3.88;2.13;;;8.50;95.10;;;;;;4909196;28;87566;-81
2021/01/29 15:51:46;;;;;;;2.03;1.90;;;8.40;96.30;;;;;;4920788;28;86864;-80
2021/01/29 15:54:20;;;;;;;2.65;2.20;;;8.40;96.50;;;;;;4919588;28;86522;-83
2021/01/29 15:57:03;;;;;;;2.47;2.28;;;8.40;94.60;;;;;;4922233;28;88586;-82
2021/01/29 15:59:37;;;;;;;11.73;4.68;;;8.40;96.70;;;;;;4907793;28;87372;-83
2021/01/29 16:02:09;;;;;;;9.63;3.85;;;8.40;96.60;;;;;;4907542;28;86890;-82
2021/01/29 16:04:41;;;;;;;3.45;3.15;;;8.30;97.60;;;;;;4911241;28;86937;-82
2021/01/29 16:07:12;;;;;;;3.22;2.53;;;8.20;97.30;;;;;;4910415;28;87350;-82
2021/01/29 16:09:57;;;;;;;3.97;3.40;;;8.20;98.10;;;;;;4904475;28;90050;-81
2021/01/29 16:12:46;;;;;;;3.00;2.50;;;8.10;96.50;;;;;;4919391;28;86274;-81
2021/01/29 16:15:24;;;;;;;2.65;2.55;;;8.10;98.90;;;;;;4920944;28;85925;-82
2021/01/29 16:17:55;;;;;;;2.53;2.35;;;8.00;99.80;;;;;;4907102;28;86810;-82
2021/01/29 16:20:40;;;;;;;3.33;2.78;;;8.00;94.70;;;;;;4913215;28;87876;-81
2021/01/29 16:23:24;;;;;;;3.10;2.80;;;8.00;96.30;;;;;;4892277;28;87749;-83
2021/01/29 16:26:03;;;;;;;2.08;1.98;;;8.00;95.90;;;;;;4892473;28;88931;-83
2021/01/29 16:28:34;;;;;;;3.38;2.35;;;8.00;95.20;;;;;;4896515;28;88279;-82
2021/01/29 16:31:09;;;;;;;2.10;2.00;;;8.10;93.20;;;;;;4906686;28;87072;-83
2021/01/29 16:33:35;;;;;;;2.88;2.22;;;8.10;93.30;;;;;;4920872;28;87003;-83
2021/01/29 16:36:09;;;;;;;2.38;2.17;;;8.10;92.70;;;;;;4911514;28;87123;-83
2021/01/29 16:38:39;;;;;;;2.45;1.30;;;8.20;92.50;;;;;;4911158;28;87814;-83
2021/01/29 16:41:30;;;;;;;3.38;2.53;;;8.20;92.60;;;;;;4914555;28;87898;-82
2021/01/29 16:44:20;;;;;;;1.88;1.77;;;8.20;92.40;;;;;;4906695;28;87008;-83
2021/01/29 16:46:46;;;;;;;2.15;2.05;;;8.30;91.90;;;;;;4918209;28;87634;-82
2021/01/29 16:49:24;;;;;;;4.05;2.58;;;8.30;92.40;;;;;;4923803;28;87939;-82
2021/01/29 16:52:00;;;;;;;2.65;2.50;;;8.50;92.20;;;;;;4933812;28;88419;-82
2021/01/29 16:54:29;;;;;;;2.10;2.00;;;8.60;90.90;;;;;;4928628;28;86891;-82
2021/01/29 16:57:10;;;;;;;3.20;2.30;;;8.70;91.20;;;;;;4932981;28;87037;-82
2021/01/29 16:59:38;;;;;;;2.42;2.22;;;8.70;91.10;;;;;;4928845;28;86889;-83
2021/01/29 17:02:10;;;;;;;1.85;1.75;;;8.70;91.50;;;;;;4930182;28;87817;-82
2021/01/29 17:04:52;;;;;;;2.53;2.30;;;8.70;91.30;;;;;;4932303;28;88524;-82
2021/01/29 17:07:42;;;;;;;1.92;1.83;;;8.80;91.40;;;;;;4931254;28;86153;-82
2021/01/29 17:10:15;;;;;;;2.65;2.20;;;8.80;91.00;;;;;;4933691;28;87414;-82
2021/01/29 17:12:41;;;;;;;4.47;1.95;;;8.80;92.20;;;;;;4928597;28;86859;-82
2021/01/29 17:15:22;;;;;;;2.60;2.40;;;8.80;92.10;;;;;;4927136;28;87655;-83
2021/01/29 17:17:53;;;;;;;1.58;1.48;;;8.70;93.40;;;;;;4928925;28;86881;-82
2021/01/29 17:20:20;;;;;;;2.80;2.60;;;8.70;94.00;;;;;;4936360;28;86575;-83
2021/01/29 17:22:48;;;;;;;3.80;2.35;;;8.70;95.20;;;;;;4930365;28;86971;-84
2021/01/29 17:25:33;;;;;;;2.38;2.17;;;8.60;97.90;;;;;;4931179;28;86931;-83
2021/01/29 17:28:02;;;;;;;2.42;2.25;;;8.20;99.90;;;;;;4935594;28;86930;-81
2021/01/29 17:30:33;;;;;;;2.20;2.10;;;7.70;99.90;;;;;;4930202;28;88273;-83
2021/01/29 17:33:25;;;;;;;2.25;2.05;;;7.10;99.90;;;;;;4942700;28;89069;-84
2021/01/29 17:35:55;;;;;;;9.32;6.28;;;6.70;99.90;;;;;;4923622;28;86504;-84
2021/01/29 17:38:23;;;;;;;2.58;2.38;;;6.40;99.90;;;;;;4934285;28;86686;-82
2021/01/29 17:41:00;;;;;;;2.80;2.60;;;6.30;99.90;;;;;;4929230;28;89242;-81
2021/01/29 17:43:33;;;;;;;7.30;4.60;;;6.10;99.90;;;;;;4924610;28;88336;-83
2021/01/29 17:46:12;;;;;;;2.25;2.10;;;6.10;99.90;;;;;;4929656;28;87099;-84
2021/01/29 17:48:40;;;;;;;4.05;3.00;;;6.10;99.90;;;;;;4930283;28;87541;-83
2021/01/29 17:51:26;;;;;;;3.10;2.55;;;6.10;99.90;;;;;;4926067;28;87360;-82
2021/01/29 17:53:57;;;;;;;1.80;1.70;;;6.10;99.90;;;;;;4928402;28;86911;-82
2021/01/29 17:56:33;;;;;;;3.25;2.17;;;6.10;99.90;;;;;;4928841;28;87174;-82
2021/01/29 17:58:59;;;;;;;2.25;2.10;;;6.20;99.90;;;;;;4918413;28;86356;-82
2021/01/29 18:01:37;;;;;;;2.33;2.22;;;6.20;99.90;;;;;;4914632;28;89932;-82